createdAt,value
2023-01-06T00:02:36.290Z,9.46
2023-01-06T00:05:25.887Z,9.45
2023-01-06T00:08:16.552Z,9.46
2023-01-06T00:11:10.071Z,9.26
2023-01-06T00:14:00.123Z,9.39
2023-01-06T00:16:49.492Z,9.41
2023-01-06T00:19:38.773Z,9.40
2023-01-06T00:22:28.072Z,9.46
2023-01-06T00:25:19.152Z,9.38
2023-01-06T00:28:08.514Z,9.41
2023-01-06T00:30:58.316Z,9.49
2023-01-06T00:33:47.749Z,9.51
2023-01-06T00:36:37.198Z,9.44
2023-01-06T00:39:26.591Z,9.44
2023-01-06T00:42:17.287Z,9.39
2023-01-06T00:45:07.487Z,9.46
2023-01-06T00:47:56.749Z,9.42
2023-01-06T00:50:46.028Z,9.49
2023-01-06T00:53:35.406Z,9.30
2023-01-06T00:56:25.882Z,9.45
2023-01-06T00:59:19.919Z,9.39
2023-01-06T01:02:09.381Z,9.37
2023-01-06T01:04:58.727Z,9.38
2023-01-06T01:07:48.005Z,9.35
2023-01-06T01:10:37.312Z,9.35
2023-01-06T01:13:26.604Z,9.22
2023-01-06T01:16:17.316Z,9.23
2023-01-06T01:19:07.136Z,9.23
2023-01-06T01:21:56.436Z,9.28
2023-01-06T01:24:45.667Z,9.27
2023-01-06T01:27:34.940Z,9.32
2023-01-06T01:30:24.152Z,9.17
2023-01-06T01:33:14.775Z,9.27
2023-01-06T01:36:08.321Z,9.27
2023-01-06T01:38:58.004Z,9.21
2023-01-06T01:41:48.211Z,9.16
2023-01-06T01:45:00.454Z,9.13
2023-01-06T01:47:55.009Z,9.22
2023-01-06T01:50:51.526Z,9.18
2023-01-06T01:53:46.748Z,9.19
2023-01-06T01:56:42.942Z,9.18
2023-01-06T01:59:35.580Z,9.10
2023-01-06T02:02:25.598Z,9.15
2023-01-06T02:05:22.871Z,9.17
2023-01-06T02:08:33.072Z,9.19
2023-01-06T02:11:23.348Z,9.25
2023-01-06T02:14:15.994Z,9.21
2023-01-06T02:17:28.836Z,9.18
2023-01-06T02:20:42.792Z,9.06
2023-01-06T02:24:24.808Z,9.09
2023-01-06T02:27:56.038Z,9.14
2023-01-06T02:31:29.639Z,9.10
2023-01-06T02:34:28.583Z,9.11
2023-01-06T02:37:34.001Z,8.99
2023-01-06T02:40:44.409Z,9.13
2023-01-06T02:43:47.478Z,9.14
2023-01-06T02:46:59.203Z,9.12
2023-01-06T02:49:59.653Z,9.08
2023-01-06T02:53:03.864Z,9.11
2023-01-06T02:55:56.561Z,9.10
2023-01-06T02:58:51.679Z,9.10
2023-01-06T03:01:45.993Z,9.08
2023-01-06T03:04:40.356Z,8.98
2023-01-06T03:07:32.939Z,9.05
2023-01-06T03:10:25.901Z,9.14
2023-01-06T03:13:24.754Z,9.12
2023-01-06T03:16:18.499Z,9.05
2023-01-06T03:19:09.671Z,8.99
2023-01-06T03:22:00.516Z,8.83
2023-01-06T03:24:51.406Z,8.71
2023-01-06T03:27:43.173Z,8.70
2023-01-06T03:30:49.356Z,8.69
2023-01-06T03:33:47.316Z,8.62
2023-01-06T03:36:51.507Z,8.58
2023-01-06T03:40:05.517Z,8.60
2023-01-06T03:43:13.552Z,8.54
2023-01-06T03:46:23.347Z,8.40
2023-01-06T03:49:20.353Z,8.49
2023-01-06T03:52:21.434Z,8.44
2023-01-06T03:55:16.614Z,8.44
2023-01-06T03:58:10.731Z,8.41
2023-01-06T04:01:01.726Z,8.41
2023-01-06T04:03:54.372Z,8.35
2023-01-06T04:06:45.688Z,8.31
2023-01-06T04:09:36.468Z,8.33
2023-01-06T04:12:40.714Z,8.24
2023-01-06T04:15:34.267Z,8.33
2023-01-06T04:18:27.737Z,8.28
2023-01-06T04:21:17.762Z,8.29
2023-01-06T04:24:08.077Z,8.27
2023-01-06T04:27:00.299Z,8.21
2023-01-06T04:29:50.280Z,8.23
2023-01-06T04:32:39.649Z,8.27
2023-01-06T04:35:30.632Z,8.30
2023-01-06T04:38:21.160Z,8.29
2023-01-06T04:41:10.560Z,8.11
2023-01-06T04:44:01.415Z,8.23
2023-01-06T04:46:50.768Z,8.33
2023-01-06T04:49:40.154Z,8.39
2023-01-06T04:52:29.566Z,8.46
2023-01-06T04:55:18.963Z,8.39
2023-01-06T04:58:09.257Z,8.54
2023-01-06T05:01:03.001Z,8.08
2023-01-06T05:03:52.803Z,8.59
2023-01-06T05:06:44.698Z,8.67
2023-01-06T05:09:33.925Z,8.75
2023-01-06T05:12:23.406Z,8.86
2023-01-06T05:15:13.390Z,8.86
2023-01-06T05:18:04.087Z,8.87
2023-01-06T05:20:53.857Z,8.88
2023-01-06T05:23:43.895Z,8.87
2023-01-06T05:26:33.270Z,8.78
2023-01-06T05:29:22.638Z,8.73
2023-01-06T05:32:11.890Z,8.72
2023-01-06T05:35:02.687Z,8.76
2023-01-06T05:37:51.973Z,8.78
2023-01-06T05:40:41.287Z,8.66
2023-01-06T05:43:30.846Z,8.73
2023-01-06T05:46:20.191Z,8.65
2023-01-06T05:49:10.635Z,8.68
2023-01-06T05:52:01.328Z,8.68
2023-01-06T05:54:50.558Z,8.76
2023-01-06T05:57:39.813Z,8.63
2023-01-06T06:00:29.279Z,8.78
2023-01-06T06:03:18.723Z,8.76
2023-01-06T06:06:08.845Z,8.62
2023-01-06T06:09:00.020Z,8.76
2023-01-06T06:11:52.027Z,8.80
2023-01-06T06:14:41.253Z,8.76
2023-01-06T06:17:32.027Z,8.73
2023-01-06T06:20:21.345Z,8.69
2023-01-06T06:23:10.700Z,8.64
2023-01-06T06:26:01.472Z,8.63
2023-01-06T06:28:50.770Z,8.56
2023-01-06T06:31:40.166Z,8.59
2023-01-06T06:34:25.953Z,8.61
2023-01-06T06:37:15.346Z,8.63
2023-01-06T06:40:05.281Z,8.58
2023-01-06T06:42:54.545Z,8.64
2023-01-06T06:45:46.185Z,8.60
2023-01-06T06:48:35.718Z,8.56
2023-01-06T06:51:26.419Z,8.52
2023-01-06T06:54:16.128Z,8.70
2023-01-06T06:57:05.496Z,8.74
2023-01-06T06:59:54.749Z,8.81
2023-01-06T07:02:44.686Z,8.87
2023-01-06T07:05:34.114Z,8.90
2023-01-06T07:08:25.388Z,8.99
2023-01-06T07:11:14.676Z,8.98
2023-01-06T07:14:03.968Z,8.96
2023-01-06T07:16:53.320Z,9.06
2023-01-06T07:19:45.421Z,9.09
2023-01-06T07:22:37.863Z,9.07
2023-01-06T07:25:28.710Z,9.06
2023-01-06T07:28:17.944Z,9.01
2023-01-06T07:31:07.261Z,9.10
2023-01-06T07:33:56.658Z,9.19
2023-01-06T07:36:45.962Z,9.23
2023-01-06T07:39:35.621Z,9.25
2023-01-06T07:42:26.429Z,9.28
2023-01-06T07:45:15.861Z,9.28
2023-01-06T07:48:05.796Z,9.25
2023-01-06T07:50:55.100Z,9.24
2023-01-06T07:53:44.650Z,9.19
2023-01-06T07:56:33.840Z,9.29
2023-01-06T07:59:24.558Z,9.20
2023-01-06T08:02:14.186Z,9.17
2023-01-06T08:05:03.550Z,9.18
2023-01-06T08:07:52.845Z,9.23
2023-01-06T08:10:42.641Z,9.17
2023-01-06T08:13:32.398Z,9.13
2023-01-06T08:16:23.279Z,9.19
2023-01-06T08:19:12.787Z,9.20
2023-01-06T08:22:02.339Z,9.18
2023-01-06T08:24:51.947Z,9.18
2023-01-06T08:27:41.559Z,9.23
2023-01-06T08:30:31.149Z,9.32
2023-01-06T08:33:24.195Z,9.31
2023-01-06T08:36:18.131Z,9.30
2023-01-06T08:39:07.367Z,9.28
2023-01-06T08:41:56.627Z,9.37
2023-01-06T08:44:46.048Z,9.33
2023-01-06T08:47:35.704Z,9.35
2023-01-06T08:50:27.391Z,9.39
2023-01-06T08:53:16.971Z,9.46
2023-01-06T08:56:12.556Z,9.49
2023-01-06T08:59:05.569Z,9.47
2023-01-06T09:01:55.010Z,9.55
2023-01-06T09:04:44.855Z,9.41
2023-01-06T09:07:35.669Z,9.60
2023-01-06T09:10:25.557Z,9.58
2023-01-06T09:13:14.840Z,9.61
2023-01-06T09:16:07.232Z,9.63
2023-01-06T09:18:56.663Z,9.67
2023-01-06T09:21:46.275Z,9.69
2023-01-06T09:24:36.961Z,9.73
2023-01-06T09:27:26.264Z,9.63
2023-01-06T09:30:15.725Z,9.65
2023-01-06T09:33:05.079Z,9.66
2023-01-06T09:35:54.353Z,9.63
2023-01-06T09:38:43.602Z,9.78
2023-01-06T09:42:15.149Z,9.85
2023-01-06T09:45:08.517Z,9.80
2023-01-06T09:48:01.235Z,9.91
2023-01-06T09:50:55.328Z,9.90
2023-01-06T09:53:52.500Z,9.92
2023-01-06T09:56:48.032Z,9.88
2023-01-06T09:59:47.787Z,9.91
2023-01-06T10:02:41.015Z,9.97
2023-01-06T10:05:39.405Z,9.99
2023-01-06T10:08:41.545Z,10.06
2023-01-06T10:11:46.806Z,10.14
2023-01-06T10:14:50.859Z,10.14
2023-01-06T10:18:00.044Z,10.18
2023-01-06T10:21:11.824Z,10.22
2023-01-06T10:24:33.118Z,10.18
2023-01-06T10:27:29.168Z,10.28
2023-01-06T10:30:30.173Z,10.24
2023-01-06T10:36:19.767Z,10.49
2023-01-06T10:39:15.223Z,10.49
2023-01-06T10:42:36.089Z,10.64
2023-01-06T10:45:35.323Z,10.68
2023-01-06T10:48:30.533Z,10.73
2023-01-06T10:51:37.885Z,10.77
2023-01-06T10:54:33.801Z,10.83
2023-01-06T10:57:29.770Z,10.90
2023-01-06T11:00:22.421Z,10.94
2023-01-06T11:03:32.266Z,11.00
2023-01-06T11:06:27.667Z,11.06
2023-01-06T11:09:33.590Z,11.01
2023-01-06T11:12:27.147Z,11.06
2023-01-06T11:15:23.838Z,11.17
2023-01-06T11:18:27.717Z,11.12
2023-01-06T11:21:17.540Z,11.21
2023-01-06T11:24:22.228Z,11.22
2023-01-06T11:27:18.438Z,11.23
2023-01-06T11:30:27.388Z,11.44
2023-01-06T11:33:20.599Z,11.44
2023-01-06T11:36:13.367Z,11.47
2023-01-06T11:39:13.056Z,11.41
2023-01-06T11:42:14.078Z,11.56
2023-01-06T11:45:03.525Z,11.58
2023-01-06T11:47:53.009Z,11.57
2023-01-06T11:50:42.560Z,11.64
2023-01-06T11:53:34.502Z,11.62
2023-01-06T11:56:25.236Z,11.78
2023-01-06T11:59:16.078Z,11.90
2023-01-06T12:02:06.853Z,12.09
2023-01-06T12:04:58.171Z,12.28
2023-01-06T12:07:52.764Z,12.49
2023-01-06T12:10:46.547Z,12.51
2023-01-06T12:13:44.382Z,12.63
2023-01-06T12:16:42.010Z,12.74
2023-01-06T12:19:38.871Z,12.81
2023-01-06T12:22:38.074Z,12.76
2023-01-06T12:25:34.066Z,12.80
2023-01-06T12:28:31.567Z,12.82
2023-01-06T12:31:28.344Z,12.77
2023-01-06T12:34:24.679Z,12.94
2023-01-06T12:37:31.910Z,12.82
2023-01-06T12:40:30.959Z,12.94
2023-01-06T12:43:23.674Z,13.02
2023-01-06T12:46:21.493Z,13.03
2023-01-06T12:49:26.912Z,13.02
2023-01-06T12:52:23.613Z,13.15
2023-01-06T13:51:53.219Z,13.27
2023-01-06T13:55:26.253Z,13.31
2023-01-06T13:58:38.502Z,13.30
2023-01-06T14:01:34.433Z,13.34
2023-01-06T14:04:48.590Z,13.33
2023-01-06T14:07:39.932Z,13.25
2023-01-06T14:10:36.219Z,13.25
2023-01-06T14:13:28.605Z,13.21
2023-01-06T14:16:18.126Z,13.15
2023-01-06T14:19:10.862Z,12.99
2023-01-06T14:22:17.249Z,13.18
2023-01-06T14:25:09.857Z,13.12
2023-01-06T14:28:27.203Z,13.01
2023-01-06T14:31:40.714Z,12.81
2023-01-06T14:34:30.086Z,12.95
2023-01-06T14:37:25.644Z,13.05
2023-01-06T14:40:23.645Z,12.89
2023-01-06T14:43:43.988Z,12.99
2023-01-06T14:46:40.744Z,13.03
2023-01-06T14:49:39.692Z,13.02
2023-01-06T14:52:34.648Z,13.00
2023-01-06T14:55:27.080Z,13.06
2023-01-06T14:58:36.852Z,13.07
2023-01-06T15:01:31.940Z,13.11
2023-01-06T15:04:26.152Z,13.04
2023-01-06T15:07:21.165Z,13.01
2023-01-06T15:10:22.724Z,13.00
2023-01-06T15:13:23.823Z,12.88
2023-01-06T15:16:26.210Z,13.05
2023-01-06T15:19:17.605Z,12.97
2023-01-06T15:22:09.873Z,12.94
2023-01-06T15:24:59.182Z,12.84
2023-01-06T15:27:49.238Z,12.74
2023-01-06T15:30:38.587Z,12.75
2023-01-06T15:33:38.625Z,12.67
2023-01-06T15:36:29.020Z,12.67
2023-01-06T15:39:28.638Z,12.71
2023-01-06T15:42:25.010Z,12.68
2023-01-06T15:45:27.179Z,12.60
2023-01-06T15:48:29.135Z,12.64
2023-01-06T15:51:22.798Z,12.61
2023-01-06T15:54:15.757Z,12.55
2023-01-06T15:57:16.409Z,12.52
2023-01-06T16:00:10.960Z,12.53
2023-01-06T16:03:00.621Z,12.53
2023-01-06T16:06:00.192Z,12.55
2023-01-06T16:08:54.026Z,12.52
2023-01-06T16:11:58.257Z,12.54
2023-01-06T16:14:49.643Z,12.48
2023-01-06T16:17:47.450Z,12.48
2023-01-06T16:20:36.763Z,12.46
2023-01-06T16:23:35.430Z,12.40
2023-01-06T16:26:29.225Z,12.43
2023-01-06T16:29:29.539Z,12.40
2023-01-06T16:32:29.122Z,12.46
2023-01-06T16:35:21.269Z,12.47
2023-01-06T16:38:10.456Z,12.49
2023-01-06T16:40:59.800Z,12.49
2023-01-06T16:43:50.521Z,12.44
2023-01-06T16:46:39.967Z,12.29
2023-01-06T16:49:31.950Z,12.39
2023-01-06T16:52:21.263Z,12.47
2023-01-06T16:55:15.242Z,12.42
2023-01-06T16:58:14.301Z,12.50
2023-01-06T17:01:15.603Z,12.54
2023-01-06T17:04:05.164Z,12.55
2023-01-06T17:06:54.439Z,12.60
2023-01-06T17:09:44.513Z,12.56
2023-01-06T17:12:51.057Z,12.62
2023-01-06T17:15:40.486Z,12.59
2023-01-06T17:18:32.966Z,12.56
2023-01-06T17:21:26.161Z,12.58
2023-01-06T17:24:17.745Z,12.55
2023-01-06T17:27:22.127Z,12.59
2023-01-06T17:30:19.989Z,12.51
2023-01-06T17:33:12.143Z,12.60
2023-01-06T17:36:03.583Z,12.62
2023-01-06T17:38:53.622Z,12.63
2023-01-06T17:41:42.935Z,12.66
2023-01-06T17:44:38.762Z,12.68
2023-01-06T17:47:31.535Z,12.69
2023-01-06T17:50:29.000Z,12.65
2023-01-06T17:53:42.900Z,12.54
2023-01-06T17:56:32.152Z,12.62
2023-01-06T17:59:21.464Z,12.68
2023-01-06T18:02:35.646Z,12.49
2023-01-06T18:06:26.069Z,12.63
2023-01-06T18:09:21.318Z,12.53
2023-01-06T18:12:15.956Z,12.56
2023-01-06T18:15:30.859Z,12.53
2023-01-06T18:18:23.478Z,12.48
2023-01-06T18:21:30.729Z,12.53
2023-01-06T18:24:27.435Z,12.42
2023-01-06T18:27:24.292Z,12.49
2023-01-06T18:30:23.842Z,12.45
2023-01-06T18:33:17.804Z,12.43
2023-01-06T18:36:09.603Z,12.47
2023-01-06T18:39:00.550Z,12.46
2023-01-06T18:41:55.481Z,12.44
2023-01-06T18:44:44.786Z,12.38
2023-01-06T18:47:37.886Z,12.41
2023-01-06T18:50:33.552Z,12.41
2023-01-06T18:53:28.566Z,12.45
2023-01-06T18:56:21.183Z,12.46
2023-01-06T18:59:18.368Z,12.47
2023-01-06T19:02:32.247Z,12.52
2023-01-06T19:05:21.570Z,12.54
2023-01-06T19:08:16.893Z,12.54
2023-01-06T19:11:18.619Z,12.60
2023-01-06T19:14:16.701Z,12.62
2023-01-06T19:17:18.488Z,12.59
2023-01-06T19:20:16.934Z,12.58
2023-01-06T19:23:18.684Z,12.65
2023-01-06T19:26:24.356Z,12.66
2023-01-06T19:29:16.689Z,12.68
2023-01-06T19:32:15.670Z,12.58
2023-01-06T19:35:18.031Z,12.65
2023-01-06T19:38:21.197Z,12.66
2023-01-06T19:41:19.595Z,12.64
2023-01-06T19:44:15.210Z,12.65
2023-01-06T19:47:21.051Z,12.87
2023-01-06T19:50:19.942Z,13.00
2023-01-06T19:53:33.242Z,13.16
2023-01-06T19:56:26.550Z,13.26
2023-01-06T19:59:22.031Z,13.31
2023-01-06T20:02:28.606Z,13.42
2023-01-06T20:05:18.952Z,13.36
2023-01-06T20:08:08.772Z,13.50
2023-01-06T20:10:58.484Z,13.57
2023-01-06T20:13:47.850Z,13.56
2023-01-06T20:16:39.035Z,13.49
2023-01-06T20:19:28.387Z,13.61
2023-01-06T20:22:17.716Z,13.70
2023-01-06T20:25:08.244Z,13.73
2023-01-06T20:27:57.644Z,13.67
2023-01-06T20:30:47.099Z,13.70
2023-01-06T20:33:37.767Z,13.63
2023-01-06T20:36:27.059Z,13.62
2023-01-06T20:39:17.021Z,13.69
2023-01-06T20:42:07.158Z,13.73
2023-01-06T20:44:56.399Z,13.66
2023-01-06T20:47:45.686Z,13.69
2023-01-06T20:50:36.523Z,13.69
2023-01-06T20:53:25.935Z,13.79
2023-01-06T20:56:15.329Z,13.66
2023-01-06T20:59:04.977Z,13.72
2023-01-06T21:01:54.371Z,13.67
2023-01-06T21:04:43.765Z,13.53
2023-01-06T21:07:35.021Z,13.52
2023-01-06T21:10:24.514Z,13.48
2023-01-06T21:13:13.842Z,13.47
2023-01-06T21:16:03.140Z,13.41
2023-01-06T21:18:52.531Z,13.27
2023-01-06T21:21:41.787Z,13.23
2023-01-06T21:24:32.518Z,13.23
2023-01-06T21:27:21.993Z,13.33
2023-01-06T21:30:13.046Z,13.30
2023-01-06T21:33:02.509Z,13.36
2023-01-06T21:35:52.102Z,13.31
2023-01-06T21:38:41.380Z,13.28
2023-01-06T21:41:49.567Z,13.31
2023-01-06T21:44:38.858Z,13.27
2023-01-06T21:47:28.172Z,13.28
2023-01-06T21:50:17.701Z,13.24
2023-01-06T21:53:07.595Z,13.26
2023-01-06T21:55:56.874Z,13.20
2023-01-06T21:58:47.590Z,13.14
2023-01-06T22:01:37.018Z,13.21
2023-01-06T22:04:26.454Z,13.22
2023-01-06T22:07:16.289Z,13.20
2023-01-06T22:10:07.416Z,13.21
2023-01-06T22:12:59.323Z,13.19
2023-01-06T22:15:51.122Z,13.07
2023-01-06T22:18:40.808Z,13.09
2023-01-06T22:21:30.209Z,13.14
2023-01-06T22:24:20.071Z,13.11
2023-01-06T22:27:10.042Z,13.13
2023-01-06T22:29:59.271Z,13.10
2023-01-06T22:32:50.841Z,13.06
2023-01-06T22:35:40.057Z,13.04
2023-01-06T22:38:29.314Z,13.05
2023-01-06T22:41:18.538Z,12.98
2023-01-06T22:44:07.907Z,13.08
2023-01-06T22:46:57.152Z,13.00
2023-01-06T22:49:47.904Z,13.01
2023-01-06T22:52:37.214Z,12.99
2023-01-06T22:55:26.549Z,12.96
2023-01-06T22:58:15.790Z,13.05
2023-01-06T23:01:07.321Z,12.98
2023-01-06T23:03:56.687Z,12.91
2023-01-06T23:06:47.923Z,12.93
2023-01-06T23:09:37.451Z,12.85
2023-01-06T23:12:26.697Z,12.87
2023-01-06T23:15:16.257Z,12.80
2023-01-06T23:18:06.501Z,12.83
2023-01-06T23:21:01.248Z,12.86
2023-01-06T23:23:53.867Z,12.81
2023-01-06T23:26:46.167Z,12.76
2023-01-06T23:29:35.373Z,12.79
2023-01-06T23:32:24.668Z,12.73
2023-01-06T23:35:13.856Z,12.79
2023-01-06T23:38:03.710Z,12.66
2023-01-06T23:40:54.394Z,12.74
2023-01-06T23:43:44.382Z,12.74
2023-01-06T23:46:36.299Z,12.69
2023-01-06T23:49:25.628Z,12.70
2023-01-06T23:52:14.818Z,12.65
2023-01-06T23:55:04.054Z,12.58
2023-01-06T23:57:54.690Z,12.63
